createdAt,value
2018-10-18T15:23:18.962Z,54.02
2018-10-18T15:24:20.605Z,54.32
2018-10-18T15:25:18.907Z,54.82
2018-10-18T15:26:18.950Z,55.15
2018-10-18T15:27:18.751Z,54.64
2018-10-18T15:28:18.566Z,55.02
2018-10-18T15:29:18.595Z,55.15
2018-10-18T15:30:18.374Z,55.55
2018-10-18T15:31:18.269Z,56.17
2018-10-18T15:32:18.234Z,56.07
2018-10-18T15:33:18.664Z,55.98
2018-10-18T15:34:17.966Z,56.17
2018-10-18T15:35:18.001Z,55.87
2018-10-18T15:36:17.754Z,56.48
2018-10-18T15:37:17.653Z,56.20
2018-10-18T15:38:17.826Z,56.17
2018-10-18T15:39:17.645Z,56.17
2018-10-18T15:40:17.358Z,56.27
2018-10-18T15:41:17.363Z,56.37
2018-10-18T15:42:17.129Z,56.07
2018-10-18T15:43:17.608Z,56.37
2018-10-18T15:44:17.024Z,56.27
2018-10-18T15:45:16.888Z,56.27
2018-10-18T15:46:16.719Z,56.17
2018-10-18T15:47:16.728Z,56.07
2018-10-18T15:48:16.509Z,56.07
2018-10-18T15:49:16.410Z,56.07
2018-10-18T15:50:16.392Z,56.07
2018-10-18T15:51:16.299Z,56.37
2018-10-18T15:52:16.197Z,56.48
2018-10-18T15:53:16.340Z,55.87
2018-10-18T15:54:16.029Z,56.17
2018-10-18T15:55:15.768Z,55.94
2018-10-18T15:56:15.666Z,55.44
2018-10-18T15:57:15.584Z,55.85
2018-10-18T15:58:15.453Z,56.05
2018-10-18T15:59:15.541Z,55.85
2018-10-18T16:00:15.420Z,55.74
2018-10-18T16:01:15.141Z,55.85
2018-10-18T16:02:15.038Z,55.94
2018-10-18T16:03:14.946Z,56.05
2018-10-18T16:04:14.850Z,56.05
2018-10-18T16:05:15.043Z,56.05
2018-10-18T16:06:14.696Z,55.85
2018-10-18T16:07:14.520Z,56.05
2018-10-18T16:08:14.420Z,55.92
2018-10-18T16:09:14.317Z,55.42
2018-10-18T16:10:14.224Z,56.05
2018-10-18T16:11:15.140Z,56.05
2018-10-18T16:12:14.010Z,56.05
2018-10-18T16:13:13.912Z,55.94
2018-10-18T16:14:13.938Z,55.94
2018-10-18T16:15:13.713Z,56.05
2018-10-18T16:16:13.622Z,55.94
2018-10-18T16:17:13.615Z,55.85
2018-10-18T16:18:13.410Z,55.55
2018-10-18T16:19:13.317Z,56.05
2018-10-18T16:20:13.315Z,55.94
2018-10-18T16:21:13.118Z,56.05
2018-10-18T16:22:13.098Z,56.15
2018-10-18T16:23:12.949Z,55.94
2018-10-18T16:24:12.895Z,55.94
2018-10-18T16:25:12.733Z,56.05
2018-10-18T16:26:13.804Z,56.05
2018-10-18T16:27:13.095Z,55.94
2018-10-18T16:28:12.419Z,55.92
2018-10-18T16:29:12.432Z,56.12
2018-10-18T16:30:12.232Z,55.72
2018-10-18T16:31:12.106Z,55.72
2018-10-18T16:32:12.771Z,56.02
2018-10-18T16:33:11.884Z,56.15
2018-10-18T16:34:11.789Z,55.92
2018-10-18T16:35:11.716Z,55.65
2018-10-18T16:36:12.106Z,56.42
2018-10-18T16:37:11.441Z,56.45
2018-10-18T16:38:11.379Z,56.35
2018-10-18T16:39:11.213Z,56.32
2018-10-18T16:40:11.106Z,56.02
2018-10-18T16:41:11.174Z,55.92
2018-10-18T16:42:10.870Z,56.12
2018-10-18T16:43:10.763Z,56.02
2018-10-18T16:44:10.725Z,56.02
2018-10-18T16:45:10.520Z,56.02
2018-10-18T16:46:10.537Z,56.02
2018-10-18T16:47:10.286Z,56.02
2018-10-18T16:48:10.236Z,55.82
2018-10-18T16:49:10.050Z,55.82
2018-10-18T16:50:11.381Z,56.02
2018-10-18T16:51:11.852Z,55.42
2018-10-18T16:52:09.892Z,55.42
2018-10-18T16:53:09.605Z,56.02
2018-10-18T16:54:09.731Z,55.42
2018-10-18T16:55:09.317Z,55.40
2018-10-18T16:56:09.223Z,55.09
